createdAt,value
2023-01-22T00:00:40.249Z,11.40
2023-01-22T00:03:29.579Z,11.28
2023-01-22T00:06:18.913Z,11.27
2023-01-22T00:09:09.606Z,11.37
2023-01-22T00:11:59.248Z,11.40
2023-01-22T00:14:49.819Z,11.39
2023-01-22T00:17:39.048Z,11.41
2023-01-22T00:20:28.313Z,11.38
2023-01-22T00:23:17.882Z,11.27
2023-01-22T00:26:12.169Z,11.05
2023-01-22T00:29:03.047Z,11.07
2023-01-22T00:31:52.298Z,11.34
2023-01-22T00:34:41.632Z,11.37
2023-01-22T00:37:31.031Z,11.44
2023-01-22T00:40:20.837Z,11.45
2023-01-22T00:43:11.757Z,11.32
2023-01-22T00:46:01.179Z,11.31
2023-01-22T00:48:51.242Z,11.16
2023-01-22T00:51:40.628Z,11.24
2023-01-22T00:54:31.121Z,11.20
2023-01-22T00:57:22.033Z,11.22
2023-01-22T01:00:18.559Z,11.16
2023-01-22T01:03:28.404Z,11.12
2023-01-22T01:06:20.630Z,11.12
2023-01-22T01:09:10.190Z,11.09
2023-01-22T01:12:00.524Z,11.06
2023-01-22T01:14:50.760Z,11.28
2023-01-22T01:17:41.429Z,11.17
2023-01-22T01:20:30.709Z,11.21
2023-01-22T01:23:19.973Z,11.19
2023-01-22T01:26:12.013Z,11.30
2023-01-22T01:29:01.397Z,11.39
2023-01-22T01:31:53.436Z,11.35
2023-01-22T01:34:45.686Z,11.30
2023-01-22T01:37:35.030Z,11.36
2023-01-22T01:40:24.395Z,11.27
2023-01-22T01:43:17.107Z,11.38
2023-01-22T01:46:16.183Z,11.38
2023-01-22T01:49:06.707Z,11.35
2023-01-22T01:52:02.751Z,11.46
2023-01-22T01:54:57.966Z,11.40
2023-01-22T01:57:47.740Z,11.37
2023-01-22T02:00:40.735Z,11.49
2023-01-22T02:03:31.352Z,11.38
2023-01-22T02:06:21.750Z,11.35
2023-01-22T02:09:12.631Z,11.33
2023-01-22T02:12:01.937Z,11.36
2023-01-22T02:14:52.704Z,11.41
2023-01-22T02:17:42.555Z,11.46
2023-01-22T02:20:37.781Z,11.29
2023-01-22T02:23:32.824Z,11.46
2023-01-22T02:26:22.969Z,11.42
2023-01-22T02:29:15.439Z,11.38
2023-01-22T02:32:05.309Z,11.44
2023-01-22T02:34:54.746Z,11.50
2023-01-22T02:37:45.616Z,11.43
2023-01-22T02:40:35.092Z,11.54
2023-01-22T02:43:24.890Z,11.68
2023-01-22T02:46:14.215Z,11.64
2023-01-22T02:49:03.557Z,11.75
2023-01-22T02:51:55.231Z,11.59
2023-01-22T02:54:47.456Z,11.66
2023-01-22T02:57:36.642Z,11.63
2023-01-22T03:00:26.098Z,11.63
2023-01-22T03:03:16.462Z,11.70
2023-01-22T03:06:07.257Z,11.69
2023-01-22T03:08:59.702Z,11.51
2023-01-22T03:11:50.754Z,11.58
2023-01-22T03:15:04.779Z,11.67
2023-01-22T03:18:10.961Z,11.67
2023-01-22T03:21:16.794Z,11.58
2023-01-22T03:24:06.891Z,11.56
2023-01-22T03:26:57.594Z,11.66
2023-01-22T03:29:47.118Z,11.59
2023-01-22T03:32:36.310Z,11.47
2023-01-22T03:35:25.603Z,11.58
2023-01-22T03:38:29.121Z,11.58
2023-01-22T03:41:20.020Z,11.62
2023-01-22T03:44:14.400Z,11.62
2023-01-22T03:47:05.053Z,11.69
2023-01-22T03:49:54.328Z,11.65
2023-01-22T03:52:43.948Z,11.70
2023-01-22T03:55:33.422Z,11.70
2023-01-22T03:58:22.619Z,11.73
2023-01-22T04:01:16.524Z,11.70
2023-01-22T04:04:06.685Z,11.70
2023-01-22T04:06:55.980Z,11.62
2023-01-22T04:09:45.552Z,11.66
2023-01-22T04:12:35.301Z,11.72
2023-01-22T04:15:24.602Z,11.71
2023-01-22T04:18:17.701Z,11.75
2023-01-22T04:21:39.325Z,11.77
2023-01-22T04:24:31.587Z,11.77
2023-01-22T04:27:22.109Z,11.69
2023-01-22T04:30:14.572Z,11.71
2023-01-22T04:33:04.182Z,11.60
2023-01-22T04:36:07.056Z,11.64
2023-01-22T04:38:56.435Z,11.65
2023-01-22T04:41:45.709Z,11.56
2023-01-22T04:44:35.933Z,11.56
2023-01-22T04:47:25.237Z,11.58
2023-01-22T04:50:19.060Z,11.55
2023-01-22T04:53:11.178Z,11.61
2023-01-22T04:56:00.936Z,11.72
2023-01-22T04:58:50.779Z,11.69
2023-01-22T05:01:40.168Z,11.79
2023-01-22T05:04:29.531Z,11.63
2023-01-22T05:07:18.842Z,11.81
2023-01-22T05:10:11.503Z,11.76
2023-01-22T05:13:05.343Z,11.83
2023-01-22T05:15:55.221Z,11.47
2023-01-22T05:18:46.955Z,11.78
2023-01-22T05:21:36.839Z,11.80
2023-01-22T05:24:28.050Z,11.82
2023-01-22T05:27:18.714Z,11.81
2023-01-22T05:30:21.789Z,11.72
2023-01-22T05:33:21.631Z,11.65
2023-01-22T05:36:12.801Z,11.66
2023-01-22T05:39:02.583Z,11.71
2023-01-22T05:41:53.520Z,11.68
2023-01-22T05:44:44.533Z,11.71
2023-01-22T05:47:35.221Z,11.76
2023-01-22T05:50:53.574Z,11.72
2023-01-22T05:53:43.030Z,11.78
2023-01-22T05:56:33.108Z,11.78
2023-01-22T05:59:22.585Z,11.83
2023-01-22T06:02:19.480Z,11.81
2023-01-22T06:05:10.102Z,11.79
2023-01-22T06:07:59.550Z,11.79
2023-01-22T06:10:59.576Z,11.87
2023-01-22T06:13:49.084Z,11.64
2023-01-22T06:16:40.845Z,11.85
2023-01-22T06:19:54.576Z,11.90
2023-01-22T06:22:43.816Z,11.86
2023-01-22T06:25:33.758Z,11.93
2023-01-22T06:28:36.311Z,11.88
2023-01-22T06:31:25.787Z,11.88
2023-01-22T06:34:15.293Z,11.94
2023-01-22T06:37:06.219Z,11.89
2023-01-22T06:39:59.825Z,11.78
2023-01-22T06:42:58.887Z,11.93
2023-01-22T06:45:48.292Z,11.95
2023-01-22T06:48:37.811Z,11.96
2023-01-22T06:51:27.197Z,11.93
2023-01-22T06:54:18.050Z,11.85
2023-01-22T06:57:07.552Z,11.87
2023-01-22T06:59:59.835Z,11.88
2023-01-22T07:02:49.150Z,11.86
2023-01-22T07:05:38.446Z,11.90
2023-01-22T07:08:29.184Z,11.82
2023-01-22T07:11:19.818Z,11.88
2023-01-22T07:14:09.035Z,11.84
2023-01-22T07:16:59.057Z,11.93
2023-01-22T07:19:48.372Z,11.91
2023-01-22T07:22:37.574Z,11.88
2023-01-22T07:25:27.977Z,11.86
2023-01-22T07:28:18.717Z,11.77
2023-01-22T07:31:11.602Z,11.68
2023-01-22T07:34:00.849Z,11.74
2023-01-22T07:36:50.358Z,11.72
2023-01-22T07:39:39.587Z,11.69
2023-01-22T07:42:28.911Z,11.63
2023-01-22T07:45:20.363Z,11.68
2023-01-22T07:48:10.959Z,11.73
2023-01-22T07:51:04.918Z,11.72
2023-01-22T07:53:54.197Z,11.71
2023-01-22T07:56:43.375Z,11.78
2023-01-22T07:59:32.758Z,11.72
2023-01-22T08:02:23.532Z,11.79
2023-01-22T08:05:14.973Z,11.79
2023-01-22T08:08:04.220Z,11.72
2023-01-22T08:10:53.489Z,11.68
2023-01-22T08:13:43.020Z,11.71
2023-01-22T08:16:32.304Z,11.68
2023-01-22T08:19:23.047Z,11.67
2023-01-22T08:22:12.340Z,11.74
2023-01-22T08:25:01.654Z,11.75
2023-01-22T08:27:50.812Z,11.83
2023-01-22T08:30:46.012Z,11.88
2023-01-22T08:33:36.369Z,11.93
2023-01-22T08:36:27.064Z,11.90
2023-01-22T08:39:16.322Z,11.97
2023-01-22T08:42:05.714Z,11.94
2023-01-22T08:44:55.022Z,11.91
2023-01-22T08:47:44.239Z,11.91
2023-01-22T08:50:33.430Z,12.02
2023-01-22T08:53:24.389Z,12.03
2023-01-22T08:56:13.659Z,12.14
2023-01-22T08:59:06.635Z,12.16
2023-01-22T09:01:56.143Z,12.11
2023-01-22T09:04:45.381Z,12.12
2023-01-22T09:07:34.711Z,12.15
2023-01-22T09:10:25.684Z,12.13
2023-01-22T09:13:15.025Z,12.22
2023-01-22T09:16:06.154Z,12.29
2023-01-22T09:18:55.900Z,12.32
2023-01-22T09:21:45.288Z,12.37
2023-01-22T09:24:34.866Z,12.37
2023-01-22T09:27:25.588Z,12.37
2023-01-22T09:30:15.649Z,12.43
2023-01-22T09:33:05.104Z,12.37
2023-01-22T09:35:54.421Z,12.48
2023-01-22T09:38:43.933Z,12.51
2023-01-22T09:41:35.871Z,12.56
2023-01-22T09:44:35.198Z,12.50
2023-01-22T09:47:34.445Z,12.55
2023-01-22T09:50:27.448Z,12.60
2023-01-22T09:53:21.202Z,12.61
2023-01-22T09:56:20.940Z,12.65
2023-01-22T09:59:18.606Z,12.69
2023-01-22T10:02:25.455Z,12.65
2023-01-22T10:05:32.100Z,12.75
2023-01-22T10:08:24.912Z,12.82
2023-01-22T10:11:14.328Z,12.86
2023-01-22T10:14:07.171Z,12.90
2023-01-22T10:16:59.567Z,12.97
2023-01-22T10:19:55.086Z,12.99
2023-01-22T10:22:44.300Z,12.98
2023-01-22T10:25:34.722Z,12.96
2023-01-22T10:28:28.458Z,12.99
2023-01-22T10:31:31.052Z,12.96
2023-01-22T10:34:30.360Z,12.99
2023-01-22T10:37:21.087Z,13.08
2023-01-22T10:40:26.693Z,13.09
2023-01-22T10:43:18.734Z,13.09
2023-01-22T10:46:20.720Z,13.19
2023-01-22T10:49:20.412Z,13.23
2023-01-22T10:52:24.868Z,13.24
2023-01-22T10:55:24.567Z,13.27
2023-01-22T10:58:18.563Z,13.28
2023-01-22T11:01:32.675Z,13.37
2023-01-22T11:04:25.507Z,13.44
2023-01-22T11:07:22.093Z,13.52
2023-01-22T11:10:25.393Z,13.59
2023-01-22T11:13:17.585Z,13.57
2023-01-22T11:16:16.404Z,13.44
2023-01-22T11:19:13.246Z,13.48
2023-01-22T11:22:04.712Z,13.55
2023-01-22T11:24:54.176Z,13.59
2023-01-22T11:28:08.167Z,13.55
2023-01-22T11:31:40.947Z,13.42
2023-01-22T11:34:59.072Z,13.48
2023-01-22T11:38:06.503Z,13.49
2023-01-22T11:41:16.510Z,13.54
2023-01-22T11:44:52.799Z,13.59
2023-01-22T11:48:02.619Z,13.66
2023-01-22T11:51:01.399Z,13.66
2023-01-22T11:54:18.804Z,13.77
2023-01-22T11:57:18.250Z,13.61
2023-01-22T12:00:45.626Z,13.71
2023-01-22T12:04:10.162Z,13.63
2023-01-22T12:07:45.799Z,13.68
2023-01-22T12:11:08.375Z,13.66
2023-01-22T12:14:24.713Z,13.74
2023-01-22T12:17:30.553Z,13.72
2023-01-22T12:20:47.405Z,13.84
2023-01-22T12:23:45.530Z,13.85
2023-01-22T12:26:39.403Z,13.79
2023-01-22T12:29:34.409Z,13.83
2023-01-22T12:32:27.853Z,13.71
2023-01-22T12:35:19.920Z,13.76
2023-01-22T12:38:21.155Z,13.84
2023-01-22T12:41:24.448Z,13.84
2023-01-22T12:44:26.736Z,13.88
2023-01-22T12:47:24.218Z,13.95
2023-01-22T12:50:24.127Z,13.95
2023-01-22T12:53:26.210Z,13.85
2023-01-22T12:56:15.389Z,13.99
2023-01-22T12:59:04.671Z,14.04
2023-01-22T13:02:01.535Z,14.05
2023-01-22T13:04:51.484Z,14.00
2023-01-22T13:07:43.055Z,14.02
2023-01-22T13:10:34.962Z,13.91
2023-01-22T13:13:30.788Z,13.97
2023-01-22T13:16:28.744Z,14.12
2023-01-22T13:19:24.557Z,14.06
2023-01-22T13:22:18.288Z,14.15
2023-01-22T13:25:24.283Z,14.09
2023-01-22T13:28:19.513Z,14.09
2023-01-22T13:31:17.134Z,14.21
2023-01-22T13:34:09.045Z,14.12
2023-01-22T13:36:59.429Z,14.16
2023-01-22T13:39:48.675Z,14.20
2023-01-22T13:42:42.174Z,14.19
2023-01-22T13:45:33.204Z,14.23
2023-01-22T13:48:27.275Z,14.25
2023-01-22T13:51:21.839Z,14.29
2023-01-22T13:54:20.581Z,14.30
2023-01-22T13:57:12.907Z,14.28
2023-01-22T14:00:05.572Z,14.21
2023-01-22T14:02:56.493Z,14.25
2023-01-22T14:05:45.676Z,14.25
2023-01-22T14:08:47.801Z,14.24
2023-01-22T14:11:41.209Z,14.29
2023-01-22T14:14:41.140Z,14.21
2023-01-22T14:17:34.520Z,14.24
2023-01-22T14:20:23.810Z,14.28
2023-01-22T14:23:13.606Z,14.11
2023-01-22T14:26:06.214Z,14.25
2023-01-22T14:28:55.580Z,14.27
2023-01-22T14:31:44.873Z,14.26
2023-01-22T14:34:35.547Z,14.24
2023-01-22T14:37:24.980Z,14.22
2023-01-22T14:40:17.720Z,14.15
2023-01-22T14:43:08.018Z,14.12
2023-01-22T14:45:57.282Z,14.18
2023-01-22T14:48:46.655Z,14.09
2023-01-22T14:51:37.185Z,14.16
2023-01-22T14:54:26.669Z,14.04
2023-01-22T14:57:15.971Z,14.03
2023-01-22T15:00:08.728Z,14.03
2023-01-22T15:02:58.385Z,14.02
2023-01-22T15:05:51.568Z,14.06
2023-01-22T15:08:42.084Z,14.02
2023-01-22T15:11:31.280Z,14.02
2023-01-22T15:14:20.609Z,14.04
2023-01-22T15:17:10.314Z,13.98
2023-01-22T15:19:59.546Z,14.02
2023-01-22T15:22:49.635Z,14.03
2023-01-22T15:25:40.319Z,14.04
2023-01-22T15:28:30.411Z,14.02
2023-01-22T15:31:19.642Z,14.01
2023-01-22T15:34:08.986Z,13.98
2023-01-22T15:36:58.277Z,13.97
2023-01-22T15:39:47.600Z,14.00
2023-01-22T15:42:38.548Z,13.98
2023-01-22T15:45:27.866Z,14.05
2023-01-22T15:48:17.235Z,14.08
2023-01-22T15:51:11.287Z,14.04
2023-01-22T15:54:02.877Z,13.98
2023-01-22T15:56:52.435Z,14.04
2023-01-22T15:59:43.404Z,14.02
2023-01-22T16:02:32.748Z,14.03
2023-01-22T16:05:22.419Z,14.03
2023-01-22T16:08:11.744Z,13.95
2023-01-22T16:11:00.996Z,14.02
2023-01-22T16:13:50.571Z,13.91
2023-01-22T16:16:41.338Z,13.98
2023-01-22T16:19:30.484Z,13.95
2023-01-22T16:22:19.769Z,13.96
2023-01-22T16:25:10.036Z,13.94
2023-01-22T16:27:59.310Z,13.94
2023-01-22T16:30:48.594Z,13.92
2023-01-22T16:33:43.573Z,13.91
2023-01-22T16:36:33.498Z,13.92
2023-01-22T16:39:25.925Z,13.86
2023-01-22T16:42:15.169Z,13.90
2023-01-22T16:45:04.684Z,13.89
2023-01-22T16:47:54.030Z,13.87
2023-01-22T16:50:44.781Z,13.82
2023-01-22T16:53:35.053Z,13.82
2023-01-22T16:56:24.383Z,13.79
2023-01-22T16:59:13.684Z,13.74
2023-01-22T17:02:05.752Z,13.60
2023-01-22T17:04:57.222Z,13.68
2023-01-22T17:07:47.837Z,13.67
2023-01-22T17:10:37.556Z,13.73
2023-01-22T17:13:26.748Z,13.75
2023-01-22T17:16:16.973Z,13.76
2023-01-22T17:19:06.446Z,13.76
2023-01-22T17:21:58.981Z,13.71
2023-01-22T17:24:49.908Z,13.66
2023-01-22T17:27:39.955Z,13.69
2023-01-22T17:30:29.223Z,13.66
2023-01-22T17:33:20.956Z,13.66
2023-01-22T17:36:14.168Z,13.57
2023-01-22T17:39:03.747Z,13.63
2023-01-22T17:41:54.418Z,13.66
2023-01-22T17:44:43.760Z,13.63
2023-01-22T17:47:32.937Z,13.63
2023-01-22T17:50:22.208Z,13.67
2023-01-22T17:53:11.557Z,13.64
2023-01-22T17:56:10.411Z,13.61
2023-01-22T17:59:04.364Z,13.61
2023-01-22T18:01:53.778Z,13.63
2023-01-22T18:04:43.040Z,13.61
2023-01-22T18:07:32.264Z,13.55
2023-01-22T18:10:21.440Z,13.48
2023-01-22T18:13:10.690Z,13.32
2023-01-22T18:16:02.385Z,13.29
2023-01-22T18:18:54.555Z,13.17
2023-01-22T18:21:43.737Z,13.12
2023-01-22T18:24:34.408Z,13.09
2023-01-22T18:27:24.163Z,13.06
2023-01-22T18:30:15.516Z,13.01
2023-01-22T18:33:06.280Z,13.00
2023-01-22T18:35:55.527Z,12.98
2023-01-22T18:38:45.080Z,12.87
2023-01-22T18:41:34.847Z,12.78
2023-01-22T18:44:27.685Z,12.91
2023-01-22T18:47:16.956Z,12.85
2023-01-22T18:50:10.078Z,12.88
2023-01-22T18:53:00.863Z,12.86
2023-01-22T18:55:50.270Z,12.84
2023-01-22T18:58:41.318Z,12.75
2023-01-22T19:01:33.547Z,12.76
2023-01-22T19:04:23.167Z,12.77
2023-01-22T19:07:13.862Z,12.77
2023-01-22T19:10:04.693Z,12.75
2023-01-22T19:12:53.897Z,12.76
2023-01-22T19:15:43.124Z,12.75
2023-01-22T19:18:32.378Z,12.74
2023-01-22T19:21:23.743Z,12.72
2023-01-22T19:24:15.937Z,12.74
2023-01-22T19:27:05.201Z,12.69
2023-01-22T19:29:55.206Z,12.70
2023-01-22T19:32:45.237Z,12.70
2023-01-22T19:35:34.438Z,12.69
2023-01-22T19:38:24.335Z,12.65
2023-01-22T19:41:15.306Z,12.61
2023-01-22T19:44:04.866Z,12.55
2023-01-22T19:46:54.131Z,12.53
2023-01-22T19:49:43.866Z,12.49
2023-01-22T19:52:33.313Z,12.47
2023-01-22T19:55:24.716Z,12.44
2023-01-22T19:58:15.407Z,12.40
2023-01-22T20:01:10.169Z,12.31
2023-01-22T20:03:59.545Z,12.33
2023-01-22T20:06:51.028Z,12.38
2023-01-22T20:09:40.239Z,12.32
2023-01-22T20:12:29.565Z,12.39
2023-01-22T20:15:20.827Z,12.40
2023-01-22T20:18:11.417Z,12.39
2023-01-22T20:21:02.870Z,12.41
2023-01-22T20:23:52.635Z,12.43
2023-01-22T20:26:42.137Z,12.47
2023-01-22T20:29:31.555Z,12.50
2023-01-22T20:32:22.743Z,12.48
2023-01-22T20:35:15.595Z,12.52
2023-01-22T20:38:04.888Z,12.49
2023-01-22T20:40:54.529Z,12.46
2023-01-22T20:43:45.091Z,12.50
2023-01-22T20:46:36.110Z,12.44
2023-01-22T20:49:27.181Z,12.51
2023-01-22T20:52:18.931Z,12.51
2023-01-22T20:55:10.693Z,12.55
2023-01-22T20:58:00.106Z,12.52
2023-01-22T21:00:49.397Z,12.50
2023-01-22T21:03:39.013Z,12.55
2023-01-22T21:06:31.804Z,12.54
2023-01-22T21:09:21.164Z,12.56
2023-01-22T21:12:13.170Z,12.56
2023-01-22T21:15:03.246Z,12.54
2023-01-22T21:17:52.517Z,12.55
2023-01-22T21:20:41.736Z,12.54
2023-01-22T21:23:32.436Z,12.53
2023-01-22T21:26:25.269Z,12.47
2023-01-22T21:29:17.182Z,12.51
2023-01-22T21:32:06.703Z,12.50
2023-01-22T21:34:56.178Z,12.58
2023-01-22T21:37:45.407Z,12.59
2023-01-22T21:40:35.978Z,12.61
2023-01-22T21:43:42.559Z,12.63
2023-01-22T21:46:35.509Z,12.64
2023-01-22T21:49:25.256Z,12.60
2023-01-22T21:52:14.454Z,12.63
2023-01-22T21:55:03.683Z,12.59
2023-01-22T21:57:54.277Z,12.63
2023-01-22T22:00:43.609Z,12.61
2023-01-22T22:03:35.013Z,12.60
2023-01-22T22:06:24.253Z,12.60
2023-01-22T22:09:16.252Z,12.60
2023-01-22T22:12:07.295Z,12.59
2023-01-22T22:14:58.098Z,12.60
2023-01-22T22:17:47.412Z,12.58
2023-01-22T22:20:37.420Z,12.59
2023-01-22T22:23:26.808Z,12.58
2023-01-22T22:26:16.123Z,12.58
2023-01-22T22:29:06.483Z,12.49
2023-01-22T22:31:57.110Z,12.51
2023-01-22T22:34:46.367Z,12.54
2023-01-22T22:37:35.640Z,12.54
2023-01-22T22:40:24.951Z,12.51
2023-01-22T22:43:15.823Z,12.48
2023-01-22T22:46:08.165Z,12.48
2023-01-22T22:49:01.419Z,12.42
2023-01-22T22:51:50.731Z,12.47
2023-01-22T22:54:40.411Z,12.35
2023-01-22T22:57:29.761Z,12.45
2023-01-22T23:00:20.676Z,12.48
2023-01-22T23:03:10.133Z,12.44
2023-01-22T23:06:08.295Z,12.49
2023-01-22T23:08:59.403Z,12.43
2023-01-22T23:11:51.753Z,12.47
2023-01-22T23:14:41.282Z,12.47
2023-01-22T23:17:30.653Z,12.47
2023-01-22T23:20:20.989Z,12.48
2023-01-22T23:23:11.666Z,12.47
2023-01-22T23:26:01.095Z,12.46
2023-01-22T23:28:52.182Z,12.43
2023-01-22T23:31:42.508Z,12.44
2023-01-22T23:34:31.873Z,12.49
2023-01-22T23:37:21.074Z,12.47
2023-01-22T23:40:14.074Z,12.43
2023-01-22T23:43:04.019Z,12.36
2023-01-22T23:45:53.653Z,12.39
2023-01-22T23:48:43.464Z,12.38
2023-01-22T23:51:33.236Z,12.34
2023-01-22T23:54:22.671Z,12.35
2023-01-22T23:57:13.470Z,12.35
